Terminal Aerodrome Forecast
Issued by NWS

Current Version | Previous Version | Text Only | Print | Product List | Glossary On
Versions: 1 2 3 4 5 6 7 8 9 10 11 12 13 14
000
FTUS43 KMQT 211726
TAFSAW
TAF
KSAW 211726Z 2118/2218 18013G24KT P6SM FEW200
     FM212100 17013G24KT P6SM BKN200
     FM220000 18012G19KT P6SM FEW200 WS012/19040KT
     FM220700 19011G19KT P6SM BKN140 WS012/21045KT
     FM221300 19011G18KT P6SM BKN030
     FM221400 19011G19KT 6SM -SHRA BKN020
     FM221500 19011G20KT 5SM -SHRA OVC010
     FM221700 24009KT 4SM -SHRA OVC010=

USA.gov is the U.S. government's official web portal to all federal, state and local government web resources and services.